createdAt,value
2023-03-22T00:02:26.769Z,9.93
2023-03-22T00:04:58.237Z,9.73
2023-03-22T00:07:26.617Z,8.27
2023-03-22T00:09:54.609Z,10.90
2023-03-22T00:12:22.489Z,12.37
2023-03-22T00:14:50.522Z,8.27
2023-03-22T00:17:18.557Z,9.60
2023-03-22T00:19:47.406Z,8.80
2023-03-22T00:22:16.680Z,8.73
2023-03-22T00:24:44.674Z,9.23
2023-03-22T00:27:14.867Z,7.80
2023-03-22T00:29:42.922Z,10.83
2023-03-22T00:32:12.869Z,8.73
2023-03-22T00:34:41.365Z,8.80
2023-03-22T00:37:10.370Z,7.67
2023-03-22T00:39:39.761Z,8.80
2023-03-22T00:42:07.945Z,10.67
2023-03-22T00:44:36.098Z,8.73
2023-03-22T00:47:06.995Z,9.50
2023-03-22T00:49:35.263Z,9.77
2023-03-22T00:52:03.237Z,7.87
2023-03-22T00:54:32.965Z,9.47
2023-03-22T00:57:02.408Z,10.80
2023-03-22T00:59:30.565Z,11.77
2023-03-22T01:02:04.198Z,8.63
2023-03-22T01:04:32.418Z,12.20
2023-03-22T01:07:02.117Z,11.80
2023-03-22T01:09:33.652Z,8.87
2023-03-22T01:12:04.265Z,11.30
2023-03-22T01:14:32.422Z,8.47
2023-03-22T01:17:00.437Z,8.93
2023-03-22T01:19:28.459Z,8.10
2023-03-22T01:21:56.666Z,10.30
2023-03-22T01:24:24.944Z,10.03
2023-03-22T01:26:52.873Z,8.77
2023-03-22T01:29:22.353Z,8.63
2023-03-22T01:31:50.863Z,9.60
2023-03-22T01:34:18.898Z,9.03
2023-03-22T01:36:47.863Z,10.17
2023-03-22T01:39:16.401Z,9.23
2023-03-22T01:41:48.562Z,11.33
2023-03-22T01:44:20.666Z,9.37
2023-03-22T01:46:51.504Z,8.93
2023-03-22T01:49:23.382Z,13.07
2023-03-22T01:51:53.843Z,10.20
2023-03-22T01:54:48.438Z,9.90
2023-03-22T01:57:28.383Z,9.13
2023-03-22T01:59:57.613Z,9.70
2023-03-22T02:02:43.509Z,11.00
2023-03-22T02:05:23.260Z,10.07
2023-03-22T02:07:54.603Z,11.13
2023-03-22T02:10:26.954Z,8.83
2023-03-22T02:13:23.128Z,12.63
2023-03-22T02:16:18.225Z,10.27
2023-03-22T02:19:26.105Z,10.27
2023-03-22T02:22:24.313Z,9.57
2023-03-22T02:25:27.437Z,8.90
2023-03-22T02:28:17.855Z,11.17
2023-03-22T02:30:59.441Z,13.30
2023-03-22T02:33:42.535Z,10.93
2023-03-22T02:36:40.252Z,10.10
2023-03-22T02:39:27.714Z,11.73
2023-03-22T02:42:04.000Z,11.30
2023-03-22T02:44:40.654Z,9.63
2023-03-22T02:47:16.766Z,12.70
2023-03-22T02:49:51.091Z,9.43
2023-03-22T02:52:25.296Z,12.03
2023-03-22T02:54:59.080Z,11.43
2023-03-22T02:57:31.120Z,10.73
2023-03-22T03:00:00.284Z,9.93
2023-03-22T03:02:29.466Z,10.90
2023-03-22T03:04:58.246Z,9.03
2023-03-22T03:07:30.598Z,15.73
2023-03-22T03:10:00.216Z,13.57
2023-03-22T03:12:30.266Z,12.10
2023-03-22T03:14:58.554Z,11.30
2023-03-22T03:17:43.307Z,12.57
2023-03-22T03:20:24.288Z,13.87
2023-03-22T03:23:01.262Z,10.70
2023-03-22T03:25:34.620Z,11.80
2023-03-22T03:28:06.491Z,11.63
2023-03-22T03:30:43.650Z,13.27
2023-03-22T03:33:17.002Z,10.73
2023-03-22T03:35:49.410Z,13.90
2023-03-22T03:38:22.462Z,16.43
2023-03-22T03:40:55.567Z,13.33
2023-03-22T03:43:25.471Z,12.43
2023-03-22T03:45:56.386Z,12.20
2023-03-22T03:48:25.814Z,11.27
2023-03-22T03:50:57.727Z,11.60
2023-03-22T03:53:27.477Z,12.03
2023-03-22T03:55:56.940Z,11.57
2023-03-22T03:58:25.591Z,12.87
2023-03-22T04:00:59.124Z,10.23
2023-03-22T04:03:30.044Z,13.77
2023-03-22T04:06:13.415Z,11.13
2023-03-22T04:08:53.886Z,11.13
2023-03-22T04:11:27.582Z,9.27
2023-03-22T04:14:03.170Z,10.87
2023-03-22T04:16:31.572Z,11.17
2023-03-22T04:19:00.893Z,9.53
2023-03-22T04:21:28.940Z,10.83
2023-03-22T04:24:02.274Z,12.30
2023-03-22T04:26:36.863Z,9.60
2023-03-22T04:29:16.014Z,12.00
2023-03-22T04:31:48.793Z,8.23
2023-03-22T04:34:39.757Z,13.57
2023-03-22T04:37:19.089Z,9.93
2023-03-22T04:39:55.195Z,9.97
2023-03-22T04:42:36.477Z,11.30
2023-03-22T04:45:29.256Z,12.60
2023-03-22T04:48:01.403Z,10.80
2023-03-22T04:50:32.892Z,9.67
2023-03-22T04:53:06.900Z,12.47
2023-03-22T04:55:35.201Z,9.77
2023-03-22T04:58:06.766Z,8.50
2023-03-22T05:00:37.617Z,11.37
2023-03-22T05:03:09.799Z,9.17
2023-03-22T05:05:43.163Z,11.03
2023-03-22T05:08:14.318Z,7.17
2023-03-22T05:10:48.314Z,8.83
2023-03-22T05:13:17.688Z,10.43
2023-03-22T05:15:49.199Z,7.73
2023-03-22T05:18:21.948Z,9.73
2023-03-22T05:20:50.062Z,10.23
2023-03-22T05:23:23.445Z,9.03
2023-03-22T05:26:01.946Z,8.67
2023-03-22T05:28:31.885Z,10.50
2023-03-22T05:31:18.096Z,8.07
2023-03-22T05:34:03.308Z,9.33
2023-03-22T05:36:36.473Z,11.73
2023-03-22T05:39:20.477Z,9.80
2023-03-22T05:41:48.503Z,8.53
2023-03-22T05:44:22.064Z,9.00
2023-03-22T05:46:59.565Z,10.63
2023-03-22T05:49:27.754Z,8.97
2023-03-22T05:51:56.217Z,12.30
2023-03-22T05:54:29.860Z,11.60
2023-03-22T05:56:59.013Z,10.93
2023-03-22T05:59:28.746Z,9.60
2023-03-22T06:01:56.832Z,8.87
2023-03-22T06:04:28.418Z,7.77
2023-03-22T06:07:05.185Z,8.07
2023-03-22T06:09:53.119Z,8.37
2023-03-22T06:12:30.163Z,7.93
2023-03-22T06:15:13.393Z,6.37
2023-03-22T06:17:53.475Z,8.07
2023-03-22T06:20:25.662Z,9.50
2023-03-22T06:23:02.242Z,10.00
2023-03-22T06:25:33.160Z,9.97
2023-03-22T06:28:01.729Z,6.80
2023-03-22T06:30:32.180Z,11.20
2023-03-22T06:33:18.500Z,7.53
2023-03-22T06:35:51.193Z,8.13
2023-03-22T06:38:29.663Z,7.57
2023-03-22T06:40:58.519Z,7.47
2023-03-22T06:43:26.870Z,5.27
2023-03-22T06:46:05.872Z,6.47
2023-03-22T06:48:42.478Z,8.77
2023-03-22T06:51:17.373Z,5.73
2023-03-22T06:53:46.621Z,4.93
2023-03-22T06:56:14.679Z,5.83
2023-03-22T06:58:52.354Z,6.87
2023-03-22T07:01:21.921Z,4.90
2023-03-22T07:03:50.120Z,7.20
2023-03-22T07:06:20.556Z,7.33
2023-03-22T07:08:52.147Z,4.50
2023-03-22T07:11:25.955Z,6.43
2023-03-22T07:14:07.580Z,7.93
2023-03-22T07:17:01.738Z,4.97
2023-03-22T07:19:31.291Z,8.70
2023-03-22T07:22:02.744Z,6.47
2023-03-22T07:24:33.560Z,9.33
2023-03-22T07:27:03.135Z,5.87
2023-03-22T07:29:31.354Z,4.17
2023-03-22T07:32:03.666Z,5.37
2023-03-22T07:34:45.088Z,6.03
2023-03-22T07:37:16.960Z,5.10
2023-03-22T07:39:45.304Z,7.80
2023-03-22T07:42:13.400Z,3.93
2023-03-22T07:44:56.245Z,3.30
2023-03-22T07:47:39.836Z,4.70
2023-03-22T07:50:32.214Z,3.20
2023-03-22T07:53:04.002Z,4.43
2023-03-22T07:55:32.340Z,4.10
2023-03-22T07:58:00.505Z,5.13
2023-03-22T08:00:32.329Z,4.30
2023-03-22T08:03:25.393Z,8.47
2023-03-22T08:06:10.179Z,4.13
2023-03-22T08:08:39.439Z,3.33
2023-03-22T08:11:09.820Z,4.57
2023-03-22T08:13:38.224Z,6.37
2023-03-22T08:16:08.109Z,2.97
2023-03-22T08:18:37.716Z,4.93
2023-03-22T08:21:07.462Z,7.57
2023-03-22T08:23:42.549Z,3.37
2023-03-22T08:26:29.068Z,3.10
2023-03-22T08:29:01.846Z,4.27
2023-03-22T08:31:35.501Z,5.97
2023-03-22T08:34:05.097Z,2.50
2023-03-22T08:36:33.216Z,2.77
2023-03-22T08:39:04.712Z,3.20
2023-03-22T08:41:42.046Z,3.33
2023-03-22T08:44:12.089Z,2.73
2023-03-22T08:46:41.318Z,2.90
2023-03-22T08:49:11.062Z,4.17
2023-03-22T08:51:43.112Z,3.57
2023-03-22T08:54:18.166Z,2.40
2023-03-22T08:57:04.650Z,3.97
2023-03-22T08:59:45.285Z,4.20
2023-03-22T09:02:24.230Z,5.07
2023-03-22T09:04:58.031Z,1.97
2023-03-22T09:07:27.342Z,2.53
2023-03-22T09:10:13.634Z,2.60
2023-03-22T09:12:45.750Z,3.40
2023-03-22T09:15:13.731Z,3.47
2023-03-22T09:17:45.458Z,3.43
2023-03-22T09:20:14.889Z,2.20
2023-03-22T09:22:45.191Z,4.93
2023-03-22T09:25:15.965Z,3.70
2023-03-22T09:27:46.690Z,3.03
2023-03-22T09:30:14.987Z,1.60
2023-03-22T09:32:43.292Z,3.13
2023-03-22T09:35:17.264Z,3.73
2023-03-22T09:37:59.781Z,2.37
2023-03-22T09:40:30.319Z,4.87
2023-03-22T09:43:00.660Z,2.93
2023-03-22T09:45:37.811Z,2.07
2023-03-22T09:48:09.359Z,4.03
2023-03-22T09:50:41.225Z,4.57
2023-03-22T09:53:13.732Z,2.47
2023-03-22T09:55:46.534Z,1.73
2023-03-22T09:58:22.935Z,2.73
2023-03-22T10:00:56.103Z,3.43
2023-03-22T10:03:32.874Z,3.10
2023-03-22T10:06:04.363Z,1.53
2023-03-22T10:08:38.123Z,2.73
2023-03-22T10:11:12.789Z,3.43
2023-03-22T10:13:43.000Z,3.20
2023-03-22T10:16:14.805Z,3.23
2023-03-22T10:18:47.129Z,3.47
2023-03-22T10:21:19.837Z,2.70
2023-03-22T10:23:50.672Z,2.90
2023-03-22T10:26:22.188Z,1.87
2023-03-22T10:28:55.552Z,1.73
2023-03-22T10:31:26.553Z,1.07
2023-03-22T10:33:59.304Z,3.07
2023-03-22T10:36:34.797Z,3.67
2023-03-22T10:39:06.311Z,2.63
2023-03-22T10:41:35.019Z,1.97
2023-03-22T10:44:04.609Z,3.47
2023-03-22T10:46:39.831Z,2.20
2023-03-22T10:49:15.065Z,2.70
2023-03-22T10:51:47.593Z,3.40
2023-03-22T10:54:17.813Z,2.20
2023-03-22T10:56:48.711Z,2.87
2023-03-22T10:59:44.259Z,3.07
2023-03-22T11:02:19.233Z,2.80
2023-03-22T11:04:52.591Z,1.63
2023-03-22T11:07:35.027Z,3.57
2023-03-22T11:10:14.677Z,2.40
2023-03-22T11:12:46.984Z,2.23
2023-03-22T11:15:29.283Z,2.97
2023-03-22T11:18:06.255Z,2.33
2023-03-22T11:20:35.086Z,5.57
2023-03-22T11:23:06.931Z,4.57
2023-03-22T11:25:36.838Z,1.17
2023-03-22T11:28:10.975Z,1.60
2023-03-22T11:30:39.789Z,3.47
2023-03-22T11:33:21.973Z,2.27
2023-03-22T11:35:56.686Z,2.60
2023-03-22T11:38:31.003Z,2.00
2023-03-22T11:41:03.380Z,1.97
2023-03-22T11:43:35.748Z,3.17
2023-03-22T11:46:04.392Z,1.80
2023-03-22T11:48:34.112Z,1.63
2023-03-22T11:51:08.702Z,1.93
2023-03-22T11:53:39.708Z,2.47
2023-03-22T11:56:15.006Z,3.03
2023-03-22T11:58:54.982Z,2.50
2023-03-22T12:01:34.494Z,4.47
2023-03-22T12:04:09.929Z,4.17
2023-03-22T12:06:41.628Z,2.40
2023-03-22T12:09:25.711Z,3.13
2023-03-22T12:11:57.329Z,2.07
2023-03-22T12:14:30.966Z,6.97
2023-03-22T12:17:06.317Z,1.70
2023-03-22T12:19:43.614Z,2.27
2023-03-22T12:22:14.185Z,3.53
2023-03-22T12:24:43.882Z,2.10
2023-03-22T12:27:17.660Z,2.57
2023-03-22T12:29:50.880Z,2.73
2023-03-22T12:32:21.488Z,2.00
2023-03-22T12:34:52.531Z,2.50
2023-03-22T12:37:23.734Z,2.63
2023-03-22T12:40:00.438Z,1.73
2023-03-22T12:42:34.999Z,2.73
2023-03-22T12:45:08.226Z,1.53
2023-03-22T12:47:41.901Z,2.53
2023-03-22T12:50:14.567Z,3.23
2023-03-22T12:52:46.662Z,3.13
2023-03-22T12:55:23.034Z,2.10
2023-03-22T12:57:54.598Z,3.00
2023-03-22T13:00:28.598Z,2.67
2023-03-22T13:03:02.528Z,4.50
2023-03-22T13:05:34.125Z,3.07
2023-03-22T13:08:04.150Z,3.77
2023-03-22T13:11:02.414Z,4.47
2023-03-22T13:13:46.532Z,3.10
2023-03-22T13:16:22.817Z,4.00
2023-03-22T13:19:02.523Z,1.80
2023-03-22T13:21:31.771Z,2.70
2023-03-22T13:24:16.461Z,4.00
2023-03-22T13:26:51.434Z,3.83
2023-03-22T13:29:21.793Z,3.07
2023-03-22T13:31:58.435Z,4.87
2023-03-22T13:34:38.648Z,3.63
2023-03-22T13:37:10.999Z,3.57
2023-03-22T13:39:40.826Z,3.23
2023-03-22T13:42:20.595Z,5.07
2023-03-22T13:44:58.527Z,4.57
2023-03-22T13:47:33.637Z,3.87
2023-03-22T13:50:06.839Z,2.77
2023-03-22T13:52:38.910Z,2.73
2023-03-22T13:55:18.852Z,4.97
2023-03-22T13:57:59.850Z,3.93
2023-03-22T14:00:41.290Z,4.27
2023-03-22T14:03:16.346Z,3.17
2023-03-22T14:05:47.331Z,2.17
2023-03-22T14:08:22.008Z,2.37
2023-03-22T14:10:52.363Z,2.97
2023-03-22T14:13:27.631Z,2.27
2023-03-22T14:15:57.772Z,5.17
2023-03-22T14:18:29.085Z,3.43
2023-03-22T14:20:59.934Z,4.07
